Time;durP1;ratioP1;P1;durP2;ratioP2;P2;SDS_P1;SDS_P2;PMS_P1;PMS_P2;Temp;Humidity;BMP_temperature;BMP_pressure;BME280_temperature;BME280_humidity;BME280_pressure;Samples;Min_cycle;Max_cycle;Signal;HPM_P1;HPM_P2
2022/07/15 00:09:15;;;;;;;3.78;0.60;;;18.60;1.00;;;;;;5982177;23;20054;-90
2022/07/15 00:12:34;;;;;;;5.53;0.90;;;18.60;1.00;;;;;;6000992;23;20043;-90
2022/07/15 00:20:11;;;;;;;3.35;0.43;;;18.60;1.00;;;;;;5926353;24;20085;-90
2022/07/15 00:52:04;;;;;;;4.05;0.35;;;18.40;1.00;;;;;;5905076;24;20094;-89
2022/07/15 00:55:31;;;;;;;7.60;1.10;;;18.30;1.00;;;;;;5938368;24;20016;-89
2022/07/15 00:58:37;;;;;;;3.58;0.68;;;18.20;1.00;;;;;;5957358;24;20028;-89
2022/07/15 01:05:30;;;;;;;3.45;1.08;;;18.30;1.00;;;;;;6051277;23;20977;-89
2022/07/15 01:08:32;;;;;;;3.30;0.85;;;18.30;1.00;;;;;;6079178;23;20022;-89
2022/07/15 01:11:08;;;;;;;3.53;0.60;;;18.20;1.00;;;;;;6101993;23;20014;-88
2022/07/15 01:21:53;;;;;;;2.90;0.52;;;18.10;1.00;;;;;;5980741;24;20119;-89
2022/07/15 01:29:43;;;;;;;2.92;0.40;;;18.20;1.00;;;;;;5980861;24;20381;-89
2022/07/15 01:56:53;;;;;;;;;;;;;;;;;;;;;
2022/07/15 02:09:12;;;;;;;;;;;;;;;;;;;;;
2022/07/15 02:12:19;;;;;;;2.80;0.63;;;17.90;1.00;;;;;;5919807;24;20025;-89
2022/07/15 02:16:08;;;;;;;;;;;;;;;;;;;;;
2022/07/15 02:20:05;;;;;;;;;;;;;;;;;;;;;
2022/07/15 02:36:13;;;;;;;1.63;0.40;;;17.70;1.00;;;;;;5994186;23;20023;-88
2022/07/15 02:39:30;;;;;;;3.22;0.60;;;17.70;1.00;;;;;;6070685;23;20400;-89
2022/07/15 02:43:24;;;;;;;2.85;0.80;;;17.70;1.00;;;;;;6108681;23;20037;-88
2022/07/15 04:19:10;;;;;;;2.92;0.52;;;17.00;1.00;;;;;;6157478;23;20040;-89
2022/07/15 04:21:40;;;;;;;1.60;0.43;;;17.00;1.00;;;;;;6106304;23;20017;-88
2022/07/15 04:24:07;;;;;;;2.10;0.35;;;16.90;1.00;;;;;;6119660;23;20018;-86
2022/07/15 04:51:21;;;;;;;2.10;0.40;;;16.80;1.00;;;;;;6109196;23;20368;-89
2022/07/15 04:53:52;;;;;;;1.50;0.20;;;16.80;1.00;;;;;;6106412;23;20025;-90
2022/07/15 04:57:02;;;;;;;1.05;0.32;;;16.80;1.00;;;;;;6130463;23;20084;-90
2022/07/15 05:00:41;;;;;;;1.23;0.30;;;16.80;1.00;;;;;;6140523;23;20040;-91
2022/07/15 05:08:04;;;;;;;1.85;0.17;;;16.80;1.00;;;;;;6131266;23;20600;-90
2022/07/15 05:11:59;;;;;;;3.00;0.30;;;16.80;1.00;;;;;;6114008;23;20021;-91
2022/07/15 05:21:41;;;;;;;0.32;0.15;;;16.80;1.00;;;;;;6155121;23;20021;-91
2022/07/15 05:24:35;;;;;;;1.60;0.40;;;16.80;1.00;;;;;;5973850;24;20612;-91
2022/07/15 05:28:05;;;;;;;2.05;0.47;;;16.80;1.00;;;;;;6052347;23;20112;-90
2022/07/15 05:35:54;;;;;;;2.25;0.40;;;16.80;1.00;;;;;;6087088;23;20072;-89
2022/07/15 05:38:53;;;;;;;3.70;0.20;;;16.80;1.00;;;;;;6051397;23;20406;-90
2022/07/15 05:42:16;;;;;;;3.42;0.47;;;16.80;1.00;;;;;;6101722;23;20434;-90
2022/07/15 05:45:40;;;;;;;1.63;0.25;;;16.90;1.00;;;;;;6010440;23;20071;-89
2022/07/15 05:48:22;;;;;;;0.95;0.20;;;16.90;1.00;;;;;;5964065;23;20124;-90
2022/07/15 05:51:07;;;;;;;1.30;0.40;;;16.90;1.00;;;;;;5998504;23;20023;-89
2022/07/15 05:53:59;;;;;;;1.33;0.50;;;16.90;1.00;;;;;;6013341;23;20008;-90
2022/07/15 05:57:29;;;;;;;1.23;0.20;;;16.90;1.00;;;;;;5992543;23;20027;-90
2022/07/15 06:05:38;;;;;;;2.25;0.30;;;16.90;1.00;;;;;;5962297;23;20012;-90
2022/07/15 06:09:18;;;;;;;0.45;0.15;;;16.90;1.00;;;;;;5970800;23;20026;-90
2022/07/15 06:17:05;;;;;;;0.93;0.20;;;17.00;1.00;;;;;;5853746;24;20026;-89
2022/07/15 06:24:56;;;;;;;1.80;0.20;;;17.10;1.00;;;;;;5915157;24;20031;-90
2022/07/15 06:28:10;;;;;;;2.78;0.15;;;17.10;1.00;;;;;;6014517;23;20478;-89
2022/07/15 06:34:09;;;;;;;1.38;0.35;;;17.20;1.00;;;;;;6100703;23;20048;-89
2022/07/15 06:36:45;;;;;;;0.80;0.20;;;17.20;1.00;;;;;;6100533;23;20040;-89
2022/07/15 06:39:52;;;;;;;1.20;0.20;;;17.30;1.00;;;;;;6077984;23;20379;-90
2022/07/15 06:42:47;;;;;;;1.20;0.30;;;17.30;1.00;;;;;;6101525;23;20029;-89
2022/07/15 06:45:41;;;;;;;0.70;0.17;;;17.30;1.00;;;;;;6127224;23;20535;-89
2022/07/15 06:48:40;;;;;;;2.75;0.45;;;17.30;1.00;;;;;;6065590;23;20019;-89
2022/07/15 06:52:05;;;;;;;1.88;0.25;;;17.40;1.00;;;;;;6045380;23;20018;-89
2022/07/15 06:54:58;;;;;;;2.03;0.10;;;17.50;1.00;;;;;;5994114;24;20011;-88
2022/07/15 07:02:11;;;;;;;2.20;0.20;;;17.50;1.00;;;;;;5946074;24;19982;-90
2022/07/15 07:09:42;;;;;;;0.50;0.10;;;17.60;1.00;;;;;;5981758;24;20047;-89
2022/07/15 07:12:53;;;;;;;0.60;0.20;;;17.60;1.00;;;;;;5937515;24;20122;-90
2022/07/15 07:15:53;;;;;;;0.50;0.20;;;17.70;1.00;;;;;;5940735;24;20377;-89
2022/07/15 07:19:31;;;;;;;2.83;0.25;;;17.70;1.00;;;;;;5971420;23;20019;-90
2022/07/15 07:22:30;;;;;;;1.05;0.38;;;17.70;1.00;;;;;;5914793;23;20025;-89
2022/07/15 07:25:38;;;;;;;1.95;0.50;;;17.90;1.00;;;;;;6011268;23;20033;-90
2022/07/15 07:28:17;;;;;;;;;;;;;;;;;;;;;
2022/07/15 07:30:54;;;;;;;2.00;0.20;;;17.90;1.00;;;;;;6100741;23;20509;-89
2022/07/15 07:33:33;;;;;;;1.45;0.32;;;18.00;1.00;;;;;;6078559;23;20696;-90
2022/07/15 07:36:08;;;;;;;0.80;0.20;;;18.00;1.00;;;;;;6077309;23;20374;-89
2022/07/15 07:38:49;;;;;;;1.20;0.38;;;18.10;1.00;;;;;;6078612;23;20096;-89
2022/07/15 07:41:28;;;;;;;0.40;0.10;;;18.10;1.00;;;;;;6078150;23;20038;-90
2022/07/15 07:44:06;;;;;;;3.88;1.08;;;18.20;1.00;;;;;;6101554;23;20022;-89
2022/07/15 07:47:28;;;;;;;1.88;0.28;;;18.30;1.00;;;;;;6100556;23;20018;-89
2022/07/15 07:50:49;;;;;;;0.38;0.10;;;18.30;1.00;;;;;;6095407;23;20081;-90
2022/07/15 07:53:58;;;;;;;1.90;0.35;;;18.30;1.00;;;;;;6099320;23;20021;-90
2022/07/15 07:56:45;;;;;;;1.85;0.20;;;18.40;1.00;;;;;;6044105;23;20018;-90
2022/07/15 07:59:34;;;;;;;3.00;0.77;;;18.50;1.00;;;;;;6101431;23;20072;-90
2022/07/15 08:02:17;;;;;;;1.52;0.22;;;18.60;1.00;;;;;;6077441;23;20069;-89
2022/07/15 08:05:10;;;;;;;2.08;0.35;;;18.60;1.00;;;;;;6080014;23;20030;-89
2022/07/15 08:08:11;;;;;;;1.67;0.20;;;18.70;1.00;;;;;;6100338;23;20398;-89
2022/07/15 08:10:55;;;;;;;0.50;0.10;;;18.70;1.00;;;;;;6104166;23;20054;-89
2022/07/15 08:13:28;;;;;;;0.50;0.28;;;18.70;1.00;;;;;;6078663;23;20419;-90
2022/07/15 08:16:09;;;;;;;1.27;0.20;;;18.70;1.00;;;;;;6103389;23;20022;-90
2022/07/15 08:19:00;;;;;;;2.25;0.52;;;18.70;1.00;;;;;;6081908;23;20076;-91
2022/07/15 08:21:42;;;;;;;2.25;0.20;;;18.80;1.00;;;;;;6104875;23;20350;-90
2022/07/15 08:24:31;;;;;;;2.40;0.80;;;18.80;1.00;;;;;;6105086;23;20057;-90
2022/07/15 08:27:03;;;;;;;3.33;0.20;;;18.90;1.00;;;;;;6079671;23;20053;-90
2022/07/15 08:29:39;;;;;;;0.93;0.43;;;18.90;1.00;;;;;;6103364;23;20066;-90
2022/07/15 08:32:10;;;;;;;1.13;0.30;;;18.90;1.00;;;;;;6079303;23;20018;-89
2022/07/15 08:34:47;;;;;;;3.70;0.60;;;19.00;1.00;;;;;;6106903;23;20014;-89
2022/07/15 08:37:27;;;;;;;2.97;0.50;;;19.00;1.00;;;;;;6116741;23;20069;-89
2022/07/15 08:39:57;;;;;;;0.85;0.17;;;19.10;1.00;;;;;;6129131;23;19998;-90
2022/07/15 08:42:27;;;;;;;2.08;0.30;;;19.10;1.00;;;;;;6130051;23;20002;-89
2022/07/15 08:45:03;;;;;;;0.75;0.22;;;19.10;1.00;;;;;;6130182;23;20057;-89
2022/07/15 08:47:35;;;;;;;0.50;0.10;;;19.10;1.00;;;;;;6131308;23;20005;-89
2022/07/15 08:50:27;;;;;;;0.63;0.30;;;19.10;1.00;;;;;;6124698;23;20028;-90
2022/07/15 08:53:25;;;;;;;1.88;0.30;;;19.20;1.00;;;;;;6080105;23;20105;-90
2022/07/15 08:56:18;;;;;;;0.82;0.20;;;19.30;1.00;;;;;;6083638;23;20022;-90
2022/07/15 08:58:50;;;;;;;2.35;0.43;;;19.40;1.00;;;;;;6132268;23;20018;-90
2022/07/15 09:01:31;;;;;;;1.83;0.28;;;19.40;1.00;;;;;;6082354;23;20025;-90
2022/07/15 09:04:01;;;;;;;1.45;0.52;;;19.40;1.00;;;;;;6079667;23;20025;-90
2022/07/15 09:06:32;;;;;;;0.30;0.10;;;19.40;1.00;;;;;;6102876;23;20774;-90
2022/07/15 09:09:37;;;;;;;2.58;0.30;;;19.40;1.00;;;;;;6081328;23;20017;-90
2022/07/15 09:12:14;;;;;;;0.80;0.20;;;19.40;1.00;;;;;;6128810;23;20039;-89
2022/07/15 09:14:44;;;;;;;0.82;0.40;;;19.40;1.00;;;;;;6102262;23;20014;-90
2022/07/15 09:17:13;;;;;;;1.50;0.30;;;19.50;1.00;;;;;;6079154;23;20025;-90
2022/07/15 09:20:13;;;;;;;2.20;0.38;;;19.50;1.00;;;;;;6104412;23;20021;-90
2022/07/15 09:22:53;;;;;;;0.52;0.30;;;19.50;1.00;;;;;;6104391;23;20017;-90
2022/07/15 09:25:34;;;;;;;1.23;0.40;;;19.60;1.00;;;;;;6079693;23;20025;-90
2022/07/15 09:28:06;;;;;;;4.15;0.30;;;19.70;1.00;;;;;;6103350;23;20025;-89
2022/07/15 09:34:20;;;;;;;2.67;0.30;;;19.70;1.00;;;;;;6128031;23;20073;-90
2022/07/15 09:37:30;;;;;;;0.95;0.30;;;19.80;1.00;;;;;;6068447;23;20505;-90
2022/07/15 09:40:12;;;;;;;2.38;0.57;;;19.90;1.00;;;;;;6080397;23;20022;-90
2022/07/15 09:43:07;;;;;;;2.05;0.20;;;20.00;1.00;;;;;;6101494;23;20109;-90
2022/07/15 09:46:01;;;;;;;0.45;0.22;;;20.10;1.00;;;;;;6102609;23;20030;-89
2022/07/15 09:48:40;;;;;;;0.65;0.28;;;20.20;1.00;;;;;;6079481;23;20022;-89
2022/07/15 09:51:24;;;;;;;1.20;0.35;;;20.20;1.00;;;;;;6078201;23;20032;-89
2022/07/15 09:54:02;;;;;;;3.10;0.60;;;20.20;1.00;;;;;;6079139;23;20327;-89
2022/07/15 09:56:38;;;;;;;0.63;0.20;;;20.30;1.00;;;;;;6105916;23;20069;-89
2022/07/15 09:59:15;;;;;;;2.33;0.20;;;20.30;1.00;;;;;;6082912;23;20022;-89
2022/07/15 10:01:53;;;;;;;2.13;0.20;;;20.40;1.00;;;;;;6110501;23;20014;-89
2022/07/15 10:04:42;;;;;;;0.93;0.30;;;20.40;1.00;;;;;;6086358;23;20089;-89
2022/07/15 10:07:25;;;;;;;2.92;0.43;;;20.40;1.00;;;;;;6081678;23;20029;-91
2022/07/15 10:10:08;;;;;;;1.90;0.32;;;20.40;1.00;;;;;;6078120;23;20030;-91
2022/07/15 10:12:57;;;;;;;1.15;0.32;;;20.50;1.00;;;;;;6103055;23;20018;-91
2022/07/15 10:16:10;;;;;;;2.00;0.25;;;20.50;1.00;;;;;;6104346;23;20013;-91
2022/07/15 10:19:12;;;;;;;3.00;0.60;;;20.60;1.00;;;;;;6078338;23;20462;-89
2022/07/15 10:22:29;;;;;;;3.17;0.52;;;20.70;1.00;;;;;;6103010;23;20316;-91
2022/07/15 10:25:20;;;;;;;1.05;0.43;;;20.80;1.00;;;;;;6101241;23;20725;-92
2022/07/15 10:28:17;;;;;;;0.45;0.20;;;20.90;1.00;;;;;;6101964;23;20442;-91
2022/07/15 10:31:09;;;;;;;0.55;0.20;;;21.00;1.00;;;;;;6102375;23;20097;-90
2022/07/15 10:33:42;;;;;;;1.55;0.20;;;21.00;1.00;;;;;;6078437;23;20017;-90
2022/07/15 10:36:36;;;;;;;0.70;0.40;;;21.10;1.00;;;;;;6127640;23;20018;-90
2022/07/15 10:39:49;;;;;;;0.85;0.30;;;21.20;1.00;;;;;;6106116;23;20018;-90
2022/07/15 10:42:25;;;;;;;2.05;0.20;;;21.20;1.00;;;;;;6127594;23;20082;-90
2022/07/15 10:45:12;;;;;;;0.82;0.20;;;21.40;1.00;;;;;;6104084;23;20021;-90
2022/07/15 10:48:26;;;;;;;2.00;0.50;;;21.40;1.00;;;;;;6078885;23;20076;-90
2022/07/15 10:51:12;;;;;;;1.48;0.50;;;21.40;1.00;;;;;;6078799;23;20022;-90
2022/07/15 10:53:52;;;;;;;1.33;0.30;;;21.50;1.00;;;;;;6101006;23;20017;-90
2022/07/15 10:56:34;;;;;;;2.00;0.40;;;21.50;1.00;;;;;;6102901;23;20033;-90
2022/07/15 10:59:19;;;;;;;0.47;0.20;;;21.50;1.00;;;;;;6078832;23;20029;-90
2022/07/15 11:02:20;;;;;;;2.25;0.20;;;21.50;1.00;;;;;;6077641;23;20032;-90
2022/07/15 11:05:21;;;;;;;0.50;0.30;;;21.50;1.00;;;;;;6078878;23;20026;-90
2022/07/15 11:08:02;;;;;;;1.48;0.30;;;21.60;1.00;;;;;;6127368;23;20029;-90
2022/07/15 11:11:30;;;;;;;3.80;0.50;;;21.60;1.00;;;;;;6127601;23;20033;-90
2022/07/15 11:14:58;;;;;;;2.42;0.47;;;21.70;1.00;;;;;;6126498;23;20096;-90
2022/07/15 11:18:02;;;;;;;1.08;0.40;;;21.90;1.00;;;;;;6101829;23;20179;-90
2022/07/15 11:20:59;;;;;;;0.93;0.28;;;22.00;1.00;;;;;;6100213;23;20036;-90
2022/07/15 11:23:54;;;;;;;0.98;0.30;;;22.00;1.00;;;;;;6126990;23;20012;-89
2022/07/15 11:26:53;;;;;;;1.92;0.30;;;22.20;1.00;;;;;;6132638;23;20017;-89
2022/07/15 11:29:58;;;;;;;1.38;0.50;;;22.20;1.00;;;;;;6108206;23;20006;-89
2022/07/15 11:32:56;;;;;;;2.20;0.30;;;22.20;1.00;;;;;;6122695;23;20422;-90
2022/07/15 11:36:03;;;;;;;1.95;0.50;;;22.20;1.00;;;;;;6105531;23;20468;-89
2022/07/15 11:39:01;;;;;;;2.58;0.30;;;22.30;1.00;;;;;;6078715;23;20022;-90
2022/07/15 11:45:33;;;;;;;0.85;0.47;;;22.40;1.00;;;;;;6127753;23;20021;-90
2022/07/15 11:48:37;;;;;;;1.98;0.88;;;22.50;1.00;;;;;;6081392;23;20093;-91
2022/07/15 11:51:08;;;;;;;3.03;0.40;;;22.40;1.00;;;;;;6079666;23;20022;-90
2022/07/15 11:53:46;;;;;;;1.55;0.30;;;22.60;1.00;;;;;;6128441;23;20014;-90
2022/07/15 11:56:26;;;;;;;5.57;0.40;;;22.70;1.00;;;;;;6079673;23;20028;-90
2022/07/15 11:59:36;;;;;;;2.55;0.40;;;22.70;1.00;;;;;;6108174;23;20089;-90
2022/07/15 12:02:15;;;;;;;1.40;0.50;;;22.70;1.00;;;;;;6105573;23;20048;-90
2022/07/15 12:04:53;;;;;;;1.20;0.38;;;22.80;1.00;;;;;;6129641;23;20074;-90
2022/07/15 12:07:37;;;;;;;1.80;0.57;;;22.80;1.00;;;;;;6101923;23;20026;-90
2022/07/15 12:10:14;;;;;;;1.20;0.35;;;22.90;1.00;;;;;;6079859;23;20072;-90
2022/07/15 12:12:56;;;;;;;3.08;0.80;;;22.90;1.00;;;;;;6102815;23;20017;-89
2022/07/15 12:15:25;;;;;;;5.10;0.60;;;22.90;1.00;;;;;;6102396;23;20014;-90
2022/07/15 12:17:55;;;;;;;1.10;0.40;;;22.90;1.00;;;;;;6128646;23;20029;-90
2022/07/15 12:20:26;;;;;;;3.65;1.17;;;23.00;1.00;;;;;;6128479;23;20018;-90
2022/07/15 12:23:13;;;;;;;2.28;0.50;;;22.90;1.00;;;;;;6102694;23;20021;-90
2022/07/15 12:25:42;;;;;;;2.50;0.75;;;23.00;1.00;;;;;;6128432;23;20462;-89
2022/07/15 12:28:29;;;;;;;0.85;0.30;;;22.90;1.00;;;;;;6079282;23;20029;-89
2022/07/15 12:31:04;;;;;;;3.80;0.47;;;23.00;1.00;;;;;;6079391;23;20353;-89
2022/07/15 12:33:41;;;;;;;1.73;0.55;;;23.00;1.00;;;;;;6101800;23;20431;-89
2022/07/15 12:36:12;;;;;;;;;;;23.00;1.00;;;;;;6079014;23;20022;-89
2022/07/15 12:39:09;;;;;;;1.02;0.35;;;23.00;1.00;;;;;;6079605;23;19923;-89
2022/07/15 12:42:02;;;;;;;2.20;0.47;;;23.10;1.00;;;;;;6102021;23;20018;-89
2022/07/15 12:45:09;;;;;;;0.98;0.35;;;23.20;1.00;;;;;;6127824;23;20021;-89
2022/07/15 12:48:06;;;;;;;1.73;0.55;;;23.20;1.00;;;;;;6129442;23;20086;-89
2022/07/15 12:50:52;;;;;;;1.30;0.68;;;23.10;1.00;;;;;;6102666;23;20022;-89
2022/07/15 12:53:37;;;;;;;3.45;1.48;;;23.20;1.00;;;;;;6102224;23;20022;-89
2022/07/15 12:56:22;;;;;;;0.95;0.43;;;23.30;1.00;;;;;;6080271;23;20085;-89
2022/07/15 12:59:21;;;;;;;1.35;0.25;;;23.40;1.00;;;;;;6102287;23;20022;-90
2022/07/15 13:06:02;;;;;;;3.15;0.77;;;23.40;1.00;;;;;;6157340;23;20021;-90
2022/07/15 13:08:40;;;;;;;2.95;0.73;;;23.30;1.00;;;;;;6133559;23;20013;-90
2022/07/15 13:11:12;;;;;;;2.00;0.90;;;23.20;1.00;;;;;;6133206;23;20017;-90
2022/07/15 13:14:09;;;;;;;0.93;0.32;;;23.40;1.00;;;;;;6126397;23;20010;-90
2022/07/15 13:17:13;;;;;;;1.15;0.43;;;23.60;1.00;;;;;;6109123;23;20094;-90
2022/07/15 13:20:31;;;;;;;1.60;0.90;;;23.70;1.00;;;;;;6084686;23;20033;-90
2022/07/15 13:47:19;;;;;;;2.13;0.60;;;24.00;1.00;;;;;;5839729;24;20029;-91
2022/07/15 14:24:45;;;;;;;1.13;0.45;;;24.20;1.00;;;;;;6113407;23;20048;-89
2022/07/15 14:27:12;;;;;;;2.75;0.85;;;24.40;1.00;;;;;;6124831;23;20517;-89
2022/07/15 14:29:39;;;;;;;4.40;0.63;;;24.60;1.00;;;;;;6125748;23;20018;-90
2022/07/15 14:32:06;;;;;;;2.35;0.47;;;24.60;1.00;;;;;;6127219;23;20014;-90
2022/07/15 14:34:33;;;;;;;3.00;0.70;;;24.60;1.00;;;;;;6125685;23;20032;-90
2022/07/15 14:37:00;;;;;;;4.10;1.13;;;24.10;1.00;;;;;;6125938;23;20022;-91
2022/07/15 14:39:50;;;;;;;4.82;1.33;;;24.20;1.00;;;;;;6125494;23;20450;-91
2022/07/15 14:42:17;;;;;;;1.90;0.77;;;24.40;1.00;;;;;;6101308;23;20129;-91
2022/07/15 14:44:44;;;;;;;1.95;0.77;;;24.40;1.00;;;;;;6125859;23;20029;-91
2022/07/15 14:47:14;;;;;;;2.45;0.80;;;24.40;1.00;;;;;;6126097;23;20021;-90
2022/07/15 14:49:43;;;;;;;5.00;1.05;;;24.60;1.00;;;;;;6125047;23;20454;-91
2022/07/15 14:52:15;;;;;;;;;;;24.70;1.00;;;;;;6125747;23;20438;-90
2022/07/15 14:54:42;;;;;;;1.77;0.73;;;24.70;1.00;;;;;;6126739;23;19917;-91
2022/07/15 14:57:45;;;;;;;2.60;1.40;;;24.80;1.00;;;;;;6127568;23;20018;-91
2022/07/15 15:04:12;;;;;;;3.33;0.60;;;24.90;1.00;;;;;;6127975;23;20022;-92
2022/07/15 15:06:46;;;;;;;1.58;0.65;;;25.40;1.00;;;;;;6102801;23;20104;-88
2022/07/15 15:09:16;;;;;;;2.03;0.70;;;25.60;1.00;;;;;;6125443;23;20430;-91
2022/07/15 15:11:47;;;;;;;2.33;0.63;;;25.60;1.00;;;;;;6102881;23;20073;-89
2022/07/15 15:14:16;;;;;;;2.65;0.80;;;25.50;1.00;;;;;;6101233;23;20045;-90
2022/07/15 15:16:44;;;;;;;1.70;0.65;;;25.40;1.00;;;;;;6125548;23;20353;-91
2022/07/15 15:19:30;;;;;;;2.35;0.55;;;25.40;1.00;;;;;;6127475;23;20022;-90
2022/07/15 15:22:00;;;;;;;2.90;1.05;;;25.30;1.00;;;;;;6129524;23;20021;-91
2022/07/15 15:24:29;;;;;;;1.60;0.57;;;25.50;1.00;;;;;;6089847;23;20030;-90
2022/07/15 15:26:58;;;;;;;1.58;0.63;;;25.60;1.00;;;;;;6102855;23;20025;-90
2022/07/15 15:29:28;;;;;;;2.25;0.75;;;25.80;1.00;;;;;;6100327;23;20439;-94
2022/07/15 15:31:57;;;;;;;2.00;0.50;;;26.00;1.00;;;;;;6099452;23;20065;-92
2022/07/15 15:35:07;;;;;;;3.70;1.05;;;26.10;1.00;;;;;;6079028;23;20033;-92
2022/07/15 15:38:07;;;;;;;4.93;1.50;;;26.30;1.00;;;;;;6075571;23;20042;-91
2022/07/15 15:41:36;;;;;;;;;;;;;;;;;;;;;
2022/07/15 16:17:03;;;;;;;3.00;0.80;;;25.40;1.00;;;;;;6134363;23;20021;-91
2022/07/15 16:19:35;;;;;;;4.53;0.75;;;25.30;1.00;;;;;;6108471;23;20093;-91
2022/07/15 16:26:09;;;;;;;3.70;0.57;;;25.40;1.00;;;;;;6109536;23;20018;-92
2022/07/15 16:29:24;;;;;;;3.05;0.93;;;25.40;1.00;;;;;;5976497;23;20101;-93
2022/07/15 16:32:45;;;;;;;;;;;;;;;;;;;;;
2022/07/15 16:36:20;;;;;;;3.78;0.88;;;25.30;1.00;;;;;;6115860;23;20029;-92
2022/07/15 16:39:42;;;;;;;1.17;0.60;;;25.30;1.00;;;;;;6110434;23;20494;-92
2022/07/15 16:43:16;;;;;;;1.25;0.30;;;25.10;1.00;;;;;;6129360;23;20026;-93
2022/07/15 16:46:44;;;;;;;;;;;;;;;;;;;;;
2022/07/15 16:56:20;;;;;;;2.65;0.32;;;25.00;1.00;;;;;;6102884;23;20234;-92
2022/07/15 17:12:20;;;;;;;2.13;0.60;;;24.70;1.00;;;;;;5881688;24;20272;-91
2022/07/15 17:14:58;;;;;;;1.30;0.47;;;24.60;1.00;;;;;;5900013;24;20028;-91
2022/07/15 17:17:38;;;;;;;1.77;0.52;;;24.40;1.00;;;;;;5876786;24;20109;-92
2022/07/15 17:20:18;;;;;;;1.02;0.30;;;24.30;1.00;;;;;;5876544;24;20022;-92
2022/07/15 17:22:53;;;;;;;1.67;0.35;;;24.20;1.00;;;;;;5876692;24;20037;-91
2022/07/15 17:25:25;;;;;;;;;;;24.00;1.00;;;;;;5975216;23;20023;-90
2022/07/15 17:27:52;;;;;;;1.50;0.40;;;23.90;1.00;;;;;;6038289;23;19966;-90
2022/07/15 17:30:25;;;;;;;1.48;0.30;;;23.90;1.00;;;;;;6014598;23;20024;-91
2022/07/15 17:32:52;;;;;;;0.88;0.38;;;23.80;1.00;;;;;;6014693;23;20031;-91
2022/07/15 17:35:49;;;;;;;1.30;0.45;;;23.70;1.00;;;;;;6014786;23;20463;-91
2022/07/15 17:38:23;;;;;;;0.30;0.10;;;23.50;1.00;;;;;;6029522;23;20044;-92
2022/07/15 17:40:56;;;;;;;1.20;0.43;;;23.50;1.00;;;;;;6078846;23;20021;-91
2022/07/15 17:43:32;;;;;;;2.58;0.50;;;23.50;1.00;;;;;;6100796;23;20077;-90
2022/07/15 17:46:02;;;;;;;3.22;0.68;;;23.40;1.00;;;;;;6078159;23;20037;-90
2022/07/15 17:48:30;;;;;;;1.27;0.50;;;23.40;1.00;;;;;;6077781;23;20022;-90
2022/07/15 17:51:00;;;;;;;1.90;0.52;;;23.40;1.00;;;;;;6102102;23;20393;-91
2022/07/15 17:53:48;;;;;;;1.08;0.50;;;23.20;1.00;;;;;;6078305;23;20022;-91
2022/07/15 17:56:30;;;;;;;1.42;0.50;;;23.20;1.00;;;;;;6102006;23;20014;-91
2022/07/15 17:59:04;;;;;;;0.73;0.30;;;23.10;1.00;;;;;;6103009;23;20018;-90
2022/07/15 18:01:33;;;;;;;2.78;0.60;;;23.00;1.00;;;;;;6126961;23;20026;-89
2022/07/15 18:04:16;;;;;;;1.35;0.45;;;23.10;1.00;;;;;;6102035;23;20446;-92
2022/07/15 18:11:10;;;;;;;2.30;0.90;;;23.00;1.00;;;;;;6054394;23;20014;-89
2022/07/15 18:13:37;;;;;;;1.10;0.38;;;22.90;1.00;;;;;;6126632;23;20085;-89
2022/07/15 18:16:05;;;;;;;1.05;0.40;;;22.90;1.00;;;;;;6077874;23;20018;-90
2022/07/15 18:18:38;;;;;;;1.10;0.40;;;22.80;1.00;;;;;;6077385;23;20037;-91
2022/07/15 18:21:09;;;;;;;1.52;0.60;;;22.80;1.00;;;;;;6101258;23;20080;-90
2022/07/15 18:23:37;;;;;;;4.07;0.70;;;22.60;1.00;;;;;;6101247;23;20349;-90
2022/07/15 18:26:10;;;;;;;2.67;0.40;;;22.60;1.00;;;;;;6102292;23;20018;-90
2022/07/15 18:28:38;;;;;;;1.13;0.45;;;22.50;1.00;;;;;;6078492;23;20053;-90
2022/07/15 18:31:10;;;;;;;1.63;0.68;;;22.50;1.00;;;;;;6128542;23;20017;-89
2022/07/15 18:33:37;;;;;;;1.88;0.75;;;22.50;1.00;;;;;;6102479;23;20030;-90
2022/07/15 18:36:07;;;;;;;1.55;0.32;;;22.30;1.00;;;;;;6077642;23;20013;-90
2022/07/15 18:38:39;;;;;;;1.50;0.43;;;22.10;1.00;;;;;;6078109;23;20092;-90
2022/07/15 18:41:12;;;;;;;1.33;0.50;;;22.10;1.00;;;;;;6127262;23;20025;-90
2022/07/15 18:43:43;;;;;;;1.88;0.98;;;22.20;1.00;;;;;;6101152;23;20030;-90
2022/07/15 18:46:18;;;;;;;2.60;0.77;;;22.20;1.00;;;;;;6127018;23;20021;-90
2022/07/15 18:48:56;;;;;;;1.58;0.80;;;22.10;1.00;;;;;;6079034;23;20497;-91
2022/07/15 18:51:28;;;;;;;1.00;0.57;;;22.00;1.00;;;;;;6077126;23;20028;-89
2022/07/15 18:53:58;;;;;;;1.70;0.55;;;21.90;1.00;;;;;;6092687;23;20014;-91
2022/07/15 18:56:37;;;;;;;1.90;0.77;;;21.80;1.00;;;;;;6049920;23;20387;-90
2022/07/15 18:59:21;;;;;;;1.50;0.60;;;21.90;1.00;;;;;;6049528;23;20019;-90
2022/07/15 19:01:55;;;;;;;1.05;0.47;;;21.90;1.00;;;;;;6048942;23;20465;-89
2022/07/15 19:04:30;;;;;;;1.70;0.52;;;21.70;1.00;;;;;;6073613;23;20018;-90
2022/07/15 19:07:01;;;;;;;0.93;0.60;;;21.80;1.00;;;;;;6048939;23;20015;-89
2022/07/15 19:09:31;;;;;;;1.20;0.57;;;21.70;1.00;;;;;;6049463;23;20045;-89
2022/07/15 19:12:03;;;;;;;0.98;0.47;;;21.70;1.00;;;;;;6049317;23;20082;-90
2022/07/15 19:14:32;;;;;;;2.28;0.70;;;21.60;1.00;;;;;;6048891;23;20018;-89
2022/07/15 19:16:59;;;;;;;3.28;0.50;;;21.50;1.00;;;;;;6098160;23;20071;-88
2022/07/15 19:19:30;;;;;;;1.50;1.35;;;21.50;1.00;;;;;;6050410;23;20109;-89
2022/07/15 19:22:00;;;;;;;2.20;0.80;;;21.50;1.00;;;;;;6097756;23;20022;-89
2022/07/15 19:24:29;;;;;;;3.40;0.70;;;21.30;1.00;;;;;;6074546;23;20025;-90
2022/07/15 19:26:57;;;;;;;0.98;0.50;;;21.20;1.00;;;;;;6075074;23;20014;-90
2022/07/15 19:29:24;;;;;;;1.08;0.47;;;21.30;1.00;;;;;;6099464;23;20013;-90
2022/07/15 19:32:10;;;;;;;2.63;0.70;;;21.40;1.00;;;;;;6075626;23;20026;-91
2022/07/15 19:35:10;;;;;;;3.33;0.63;;;21.20;1.00;;;;;;6123733;23;19998;-90
2022/07/15 19:42:34;;;;;;;2.28;0.70;;;21.20;1.00;;;;;;6099355;23;20098;-94
2022/07/15 19:46:43;;;;;;;2.03;0.63;;;21.20;1.00;;;;;;6059498;23;20037;-95
